Time;durP1;ratioP1;P1;durP2;ratioP2;P2;SDS_P1;SDS_P2;PMS_P1;PMS_P2;Temp;Humidity;BMP_temperature;BMP_pressure;BME280_temperature;BME280_humidity;BME280_pressure;Samples;Min_cycle;Max_cycle;Signal;HPM_P1;HPM_P2
2022/07/05 00:02:07;;;;;;;17.50;4.97;;;;;;;23.47;58.05;100737.19;4993926;28;20049;-75
2022/07/05 00:04:32;;;;;;;8.82;3.83;;;;;;;23.47;58.31;100735.28;4992539;28;20053;-74
2022/07/05 00:09:42;;;;;;;13.98;4.03;;;;;;;23.44;58.40;100730.19;4993571;28;20123;-75
2022/07/05 00:12:08;;;;;;;7.10;3.90;;;;;;;23.39;58.14;100732.72;4993432;28;20484;-74
2022/07/05 00:14:33;;;;;;;12.48;4.13;;;;;;;23.33;58.19;100730.78;4993443;28;20538;-75
2022/07/05 00:16:59;;;;;;;7.75;3.35;;;;;;;23.33;57.88;100734.34;4993368;28;20109;-74
2022/07/05 00:19:24;;;;;;;10.88;4.53;;;;;;;23.30;57.98;100739.41;4993406;28;20476;-75
2022/07/05 00:21:50;;;;;;;8.85;3.83;;;;;;;23.29;57.89;100743.19;4993437;28;20071;-75
2022/07/05 00:24:15;;;;;;;5.82;3.35;;;;;;;23.34;57.71;100737.94;4993349;28;20034;-75
2022/07/05 00:26:40;;;;;;;8.90;3.83;;;;;;;23.31;57.18;100735.59;4993139;28;20029;-75
2022/07/05 00:29:06;;;;;;;10.88;3.85;;;;;;;23.26;56.58;100738.97;4993245;28;20034;-75
2022/07/05 00:31:31;;;;;;;8.82;4.22;;;;;;;23.21;56.49;100729.63;4993196;28;20041;-75
2022/07/05 00:33:57;;;;;;;12.13;3.97;;;;;;;23.21;56.27;100732.38;4993087;28;20027;-75
2022/07/05 00:36:22;;;;;;;7.70;3.97;;;;;;;23.23;56.22;100733.03;4993064;28;20034;-75
2022/07/05 00:38:48;;;;;;;10.38;4.07;;;;;;;23.17;56.17;100731.13;4992961;28;20480;-75
2022/07/05 00:41:13;;;;;;;11.23;4.40;;;;;;;23.17;56.22;100729.22;4991859;28;20030;-74
2022/07/05 00:43:55;;;;;;;5.45;3.60;;;;;;;23.12;56.27;100717.13;4991722;28;20117;-74
2022/07/05 00:46:21;;;;;;;9.37;3.73;;;;;;;23.16;56.37;100715.69;4993004;28;20034;-74
2022/07/05 00:48:46;;;;;;;8.90;4.30;;;;;;;23.15;56.12;100727.69;4992925;28;20022;-74
2022/07/05 00:51:12;;;;;;;10.98;4.40;;;;;;;23.14;56.40;100724.13;4992667;28;20389;-74
2022/07/05 00:53:38;;;;;;;5.57;3.83;;;;;;;23.15;55.79;100720.31;4992723;28;20080;-74
2022/07/05 00:56:04;;;;;;;9.18;3.85;;;;;;;23.12;55.77;100719.88;4992645;28;20034;-74
2022/07/05 00:58:32;;;;;;;11.23;3.67;;;;;;;23.13;55.60;100716.94;4992632;28;20085;-75
2022/07/05 01:00:57;;;;;;;17.23;4.75;;;;;;;23.09;55.84;100721.13;4992560;28;20049;-75
2022/07/05 01:03:23;;;;;;;14.27;5.40;;;;;;;23.07;55.72;100722.41;4991198;28;20033;-75
2022/07/05 01:05:49;;;;;;;21.25;4.43;;;;;;;23.04;55.48;100722.81;4992533;28;20029;-74
2022/07/05 01:08:15;;;;;;;10.10;3.88;;;;;;;23.04;55.26;100711.84;4992486;28;20463;-74
2022/07/05 01:10:41;;;;;;;13.77;4.32;;;;;;;23.05;55.05;100710.78;4991147;28;20030;-75
2022/07/05 01:13:08;;;;;;;8.48;3.95;;;;;;;22.85;54.85;100696.97;4992355;28;20428;-74
2022/07/05 01:15:34;;;;;;;10.30;4.22;;;;;;;22.85;53.79;100696.09;4992527;28;20057;-74
2022/07/05 01:18:00;;;;;;;11.52;3.72;;;;;;;22.97;52.16;100716.44;4992389;28;20026;-74
2022/07/05 01:20:26;;;;;;;8.77;4.20;;;;;;;22.92;51.58;100718.94;4992274;28;20506;-74
2022/07/05 01:22:54;;;;;;;16.08;4.65;;;;;;;22.91;51.31;100725.47;4992235;28;20026;-74
2022/07/05 01:25:21;;;;;;;9.93;3.92;;;;;;;22.85;51.23;100707.09;4992319;28;20030;-74
2022/07/05 01:27:48;;;;;;;9.10;3.95;;;;;;;22.87;51.15;100726.94;4992353;28;20413;-75
2022/07/05 01:30:14;;;;;;;10.50;4.78;;;;;;;22.78;51.17;100710.63;4992272;28;20488;-75
2022/07/05 01:32:40;;;;;;;8.95;4.53;;;;;;;22.80;51.08;100709.59;4992356;28;20037;-75
2022/07/05 01:35:07;;;;;;;10.48;3.97;;;;;;;22.72;50.72;100705.97;4995828;28;20097;-75
2022/07/05 01:37:33;;;;;;;13.02;4.40;;;;;;;22.72;50.48;100707.84;4993002;28;20038;-74
2022/07/05 01:40:01;;;;;;;5.07;3.70;;;;;;;22.75;50.37;100713.78;4992151;28;20033;-75
2022/07/05 01:42:26;;;;;;;5.93;4.30;;;;;;;22.68;50.38;100718.41;4992061;28;20045;-75
2022/07/05 01:44:52;;;;;;;6.95;3.42;;;;;;;22.65;50.54;100715.22;4991973;28;20026;-75
2022/07/05 01:47:17;;;;;;;9.73;4.30;;;;;;;22.62;50.85;100721.91;4992067;28;20101;-75
2022/07/05 01:49:46;;;;;;;8.52;4.05;;;;;;;22.50;50.84;100725.41;4991810;28;20054;-74
2022/07/05 01:52:12;;;;;;;8.15;4.28;;;;;;;22.45;50.84;100717.75;4992115;28;20032;-74
2022/07/05 01:54:38;;;;;;;8.88;3.92;;;;;;;22.47;51.10;100715.69;4996186;28;20033;-74
2022/07/05 01:57:06;;;;;;;8.30;3.80;;;;;;;22.48;50.95;100719.25;4995865;28;20734;-74
2022/07/05 01:59:35;;;;;;;9.00;4.32;;;;;;;22.45;50.89;100716.91;4995850;28;20092;-75
2022/07/05 02:02:02;;;;;;;9.40;4.53;;;;;;;22.46;51.13;100719.47;4995743;28;20033;-75
2022/07/05 02:04:28;;;;;;;10.05;4.07;;;;;;;22.49;51.11;100715.47;4995485;28;20022;-75
2022/07/05 02:06:54;;;;;;;8.93;4.43;;;;;;;22.47;50.54;100715.69;4995668;28;20544;-75
2022/07/05 02:09:19;;;;;;;6.97;4.05;;;;;;;22.46;50.59;100719.47;4995824;28;20109;-75
2022/07/05 02:11:44;;;;;;;13.77;5.45;;;;;;;22.42;50.88;100715.41;4995863;28;20037;-75
2022/07/05 02:14:11;;;;;;;10.63;4.13;;;;;;;22.42;50.54;100715.41;4995772;28;20026;-75
2022/07/05 02:16:37;;;;;;;9.68;4.40;;;;;;;22.40;50.58;100712.03;4995616;28;20049;-74
2022/07/05 02:19:03;;;;;;;9.02;3.65;;;;;;;22.35;50.46;100709.06;4995715;28;20030;-75
2022/07/05 02:21:28;;;;;;;12.18;3.63;;;;;;;22.34;50.48;100714.72;4995622;28;20022;-75
2022/07/05 02:23:54;;;;;;;7.60;4.07;;;;;;;22.32;50.73;100712.19;4994342;28;20060;-75
2022/07/05 02:26:19;;;;;;;7.85;3.92;;;;;;;22.28;50.82;100718.25;4995713;28;20026;-75
2022/07/05 02:28:46;;;;;;;11.38;4.05;;;;;;;22.31;50.93;100724.19;4995587;28;20023;-75
2022/07/05 02:31:11;;;;;;;6.50;4.60;;;;;;;22.35;50.89;100720.03;4995543;28;20494;-75
2022/07/05 02:33:37;;;;;;;18.25;3.83;;;;;;;22.32;50.96;100722.31;4995347;28;20102;-75
2022/07/05 02:36:08;;;;;;;17.67;4.75;;;;;;;22.30;51.20;100725.22;4995338;28;20492;-75
2022/07/05 02:38:34;;;;;;;10.85;3.95;;;;;;;22.36;50.77;100732.66;4995539;28;20029;-74
2022/07/05 02:40:59;;;;;;;4.65;3.72;;;;;;;22.34;50.73;100743.00;4995474;28;20069;-75
2022/07/05 02:43:25;;;;;;;16.60;4.38;;;;;;;22.37;50.65;100744.47;4996239;28;20034;-75
2022/07/05 02:45:50;;;;;;;25.08;5.25;;;;;;;22.34;50.52;100751.22;4997822;28;20528;-75
2022/07/05 02:48:16;;;;;;;11.15;3.97;;;;;;;22.24;50.94;100732.34;4996078;28;20396;-75
2022/07/05 02:50:41;;;;;;;13.30;4.68;;;;;;;22.32;50.94;100745.09;4995273;28;20088;-75
2022/07/05 02:53:06;;;;;;;10.65;4.97;;;;;;;22.20;51.51;100725.56;4995046;28;20022;-74
2022/07/05 02:55:32;;;;;;;27.58;6.20;;;;;;;22.32;52.38;100742.34;4995329;28;20062;-75
2022/07/05 02:57:57;;;;;;;19.25;4.85;;;;;;;22.27;53.18;100738.47;4995438;28;20108;-76
2022/07/05 03:00:23;;;;;;;12.80;4.75;;;;;;;22.35;51.84;100744.69;4995077;28;20088;-74
2022/07/05 03:02:48;;;;;;;9.00;4.63;;;;;;;22.40;51.37;100744.94;4994693;28;20029;-75
2022/07/05 03:05:14;;;;;;;15.07;5.85;;;;;;;22.40;51.30;100742.19;4993944;28;20022;-74
2022/07/05 03:07:40;;;;;;;11.23;5.65;;;;;;;22.40;51.36;100735.84;4995126;28;20019;-73
2022/07/05 03:10:05;;;;;;;14.02;5.50;;;;;;;22.31;51.63;100715.97;4995590;28;20026;-74
2022/07/05 03:12:31;;;;;;;11.50;4.72;;;;;;;22.46;51.03;100740.53;4998908;28;20469;-74
2022/07/05 03:14:56;;;;;;;12.95;6.10;;;;;;;22.47;50.67;100736.75;4995118;28;20054;-74
2022/07/05 03:17:25;;;;;;;12.85;5.22;;;;;;;22.46;50.61;100741.41;4994728;28;20468;-75
2022/07/05 03:19:52;;;;;;;13.70;6.20;;;;;;;22.49;50.81;100749.22;4993436;28;20105;-74
2022/07/05 03:22:21;;;;;;;27.30;6.97;;;;;;;22.42;51.00;100723.66;4993458;28;20030;-76
2022/07/05 03:24:46;;;;;;;14.20;6.45;;;;;;;22.48;50.83;100739.28;4993384;28;20030;-75
2022/07/05 03:27:11;;;;;;;13.55;6.72;;;;;;;22.48;50.80;100742.03;4993321;28;20027;-75
2022/07/05 03:29:37;;;;;;;17.15;6.63;;;;;;;22.47;50.83;100745.84;4994543;28;20033;-74
2022/07/05 03:32:21;;;;;;;20.63;7.20;;;;;;;22.49;51.43;100757.44;4994410;28;20381;-75
2022/07/05 03:34:46;;;;;;;49.50;8.65;;;;;;;22.47;51.17;100742.25;4994664;28;20417;-75
2022/07/05 03:37:17;;;;;;;17.92;7.30;;;;;;;22.51;51.48;100749.00;4994510;28;20124;-76
2022/07/05 03:39:42;;;;;;;21.50;7.97;;;;;;;22.49;51.65;100743.75;4993088;28;20100;-75
2022/07/05 03:42:08;;;;;;;17.67;6.05;;;;;;;22.51;51.87;100749.00;4994225;28;20025;-76
2022/07/05 03:44:33;;;;;;;16.38;6.38;;;;;;;22.52;51.79;100746.06;4994195;28;20030;-74
2022/07/05 03:46:59;;;;;;;15.10;5.63;;;;;;;22.55;52.19;100739.34;4994331;28;20015;-74
2022/07/05 03:49:25;;;;;;;23.48;7.65;;;;;;;22.56;52.30;100744.66;4994059;28;20077;-75
2022/07/05 03:51:50;;;;;;;16.40;6.60;;;;;;;22.61;52.67;100744.03;4994107;28;20045;-73
2022/07/05 03:54:16;;;;;;;28.92;6.78;;;;;;;22.48;52.92;100728.31;4992727;28;20073;-75
2022/07/05 03:56:42;;;;;;;23.50;7.82;;;;;;;22.67;52.90;100754.22;4993803;28;20026;-74
2022/07/05 03:59:07;;;;;;;31.52;8.95;;;;;;;22.69;53.23;100747.50;4993357;28;20027;-73
2022/07/05 04:01:33;;;;;;;19.45;7.82;;;;;;;22.76;53.35;100753.03;4993179;28;20030;-75
2022/07/05 04:03:58;;;;;;;34.00;8.07;;;;;;;22.83;53.33;100758.56;4993177;28;20105;-76
2022/07/05 04:06:24;;;;;;;13.90;6.63;;;;;;;22.78;53.22;100750.94;4993126;28;20023;-76
2022/07/05 04:08:49;;;;;;;23.35;7.35;;;;;;;22.94;53.32;100755.25;4993160;28;20555;-76
2022/07/05 04:11:15;;;;;;;25.13;7.15;;;;;;;22.95;53.54;100752.31;4993054;28;20039;-75
2022/07/05 04:13:41;;;;;;;26.65;6.18;;;;;;;23.02;53.34;100757.84;4992996;28;20060;-75
2022/07/05 04:16:07;;;;;;;16.13;5.20;;;;;;;23.07;53.61;100744.34;4992742;28;20434;-75
2022/07/05 04:18:33;;;;;;;28.85;5.25;;;;;;;23.07;53.58;100733.38;4992884;28;20053;-76
2022/07/05 04:20:58;;;;;;;14.40;6.15;;;;;;;23.15;53.54;100742.28;4992974;28;20022;-74
2022/07/05 04:23:24;;;;;;;20.50;5.50;;;;;;;23.18;53.28;100743.75;4992784;28;20496;-74
2022/07/05 04:25:49;;;;;;;30.10;7.72;;;;;;;23.28;53.45;100741.50;4992814;28;20023;-75
2022/07/05 04:28:15;;;;;;;32.08;7.85;;;;;;;23.36;53.45;100749.56;4992566;28;20497;-75
2022/07/05 04:30:40;;;;;;;44.25;9.32;;;;;;;23.45;53.74;100748.38;4992712;28;20026;-75
2022/07/05 04:33:05;;;;;;;37.65;8.02;;;;;;;23.47;54.30;100749.00;4992696;28;20566;-74
2022/07/05 04:35:31;;;;;;;58.38;8.52;;;;;;;23.52;54.56;100732.75;4992390;28;20030;-74
2022/07/05 04:37:57;;;;;;;44.85;8.95;;;;;;;23.57;54.48;100735.75;4992633;28;20026;-74
2022/07/05 04:40:22;;;;;;;43.25;8.02;;;;;;;23.53;54.43;100720.72;4992477;28;20018;-75
2022/07/05 04:42:51;;;;;;;54.70;8.20;;;;;;;23.73;54.94;100742.72;4992560;28;20065;-76
2022/07/05 04:45:17;;;;;;;40.17;8.48;;;;;;;23.81;54.81;100740.66;4975002;28;20030;-75
2022/07/05 04:47:52;;;;;;;17.50;7.50;;;;;;;23.79;54.22;100726.28;4975255;28;20422;-75
2022/07/05 04:50:17;;;;;;;32.38;8.82;;;;;;;24.02;54.58;100749.78;4976920;28;20141;-76
2022/07/05 04:52:43;;;;;;;27.05;8.85;;;;;;;24.12;55.07;100740.13;4992214;28;20030;-76
2022/07/05 04:55:09;;;;;;;40.40;11.73;;;;;;;24.17;55.25;100742.22;4991899;28;20062;-75
2022/07/05 04:57:39;;;;;;;31.92;10.73;;;;;;;24.25;55.10;100733.75;4991890;28;20030;-75
2022/07/05 05:00:05;;;;;;;37.33;11.68;;;;;;;24.34;54.96;100741.59;4991776;28;20113;-75
2022/07/05 05:02:31;;;;;;;26.95;9.23;;;;;;;24.38;55.00;100733.75;4991843;28;20026;-76
2022/07/05 05:04:56;;;;;;;24.70;8.63;;;;;;;24.51;54.71;100749.41;4991919;28;20037;-74
2022/07/05 05:07:22;;;;;;;24.73;9.90;;;;;;;24.62;54.50;100749.59;4991807;28;20026;-75
2022/07/05 05:09:47;;;;;;;42.78;9.77;;;;;;;24.71;54.59;100744.72;4991802;28;20555;-75
2022/07/05 05:12:13;;;;;;;40.85;10.07;;;;;;;24.82;54.57;100752.38;4991816;28;20033;-75
2022/07/05 05:14:39;;;;;;;25.17;7.60;;;;;;;24.87;53.84;100749.81;4991712;28;20084;-75
2022/07/05 05:17:04;;;;;;;21.45;6.60;;;;;;;25.00;52.96;100754.44;4991732;28;20026;-75
2022/07/05 05:19:30;;;;;;;28.63;8.85;;;;;;;25.12;52.35;100747.22;4991483;28;20030;-74
2022/07/05 05:21:55;;;;;;;15.55;5.97;;;;;;;25.18;51.63;100751.84;4991602;28;20018;-75
2022/07/05 05:24:21;;;;;;;14.65;6.20;;;;;;;25.28;51.34;100746.75;4991845;28;20449;-76
2022/07/05 05:26:47;;;;;;;23.75;5.75;;;;;;;25.33;50.89;100744.16;4991255;28;20022;-75
2022/07/05 05:29:13;;;;;;;12.00;5.05;;;;;;;25.39;51.10;100743.28;4991619;28;20061;-75
2022/07/05 05:31:38;;;;;;;44.72;8.88;;;;;;;25.51;50.97;100747.09;4992139;28;20054;-75
2022/07/05 05:34:03;;;;;;;15.70;5.75;;;;;;;25.57;50.72;100750.88;4992045;28;20025;-75
2022/07/05 05:36:29;;;;;;;29.35;7.00;;;;;;;25.68;50.45;100753.81;4994420;28;20082;-75
2022/07/05 05:38:55;;;;;;;21.05;7.53;;;;;;;25.78;50.83;100750.53;4993032;28;20172;-75
2022/07/05 05:41:20;;;;;;;24.85;7.55;;;;;;;25.84;50.67;100745.00;4991956;28;20457;-75
2022/07/05 05:43:45;;;;;;;19.10;7.53;;;;;;;25.86;50.52;100745.63;4991611;28;20040;-74
2022/07/05 05:46:11;;;;;;;43.20;10.50;;;;;;;25.89;50.46;100747.94;4991826;28;20019;-76
2022/07/05 05:48:36;;;;;;;23.90;6.93;;;;;;;25.98;50.46;100743.00;4991906;28;20479;-75
2022/07/05 05:51:02;;;;;;;20.02;6.65;;;;;;;26.06;49.68;100741.88;4990779;28;20559;-76
2022/07/05 05:53:27;;;;;;;26.42;6.40;;;;;;;26.11;49.47;100742.06;4992100;28;20030;-74
2022/07/05 05:55:53;;;;;;;15.70;5.20;;;;;;;26.16;48.69;100745.88;4991655;28;20035;-74
2022/07/05 05:58:20;;;;;;;20.30;5.75;;;;;;;26.21;49.09;100742.44;4991339;28;20034;-75
2022/07/05 06:00:48;;;;;;;13.45;5.22;;;;;;;26.21;49.28;100734.16;4991502;28;20023;-75
2022/07/05 06:03:14;;;;;;;17.63;5.97;;;;;;;26.38;48.77;100743.59;4990007;28;20471;-75
2022/07/05 06:05:40;;;;;;;203.88;17.42;;;;;;;26.35;48.97;100728.34;4991467;28;20125;-75
2022/07/05 06:08:06;;;;;;;14.23;3.97;;;;;;;26.40;45.33;100739.53;4991349;28;20077;-75
2022/07/05 06:10:35;;;;;;;23.35;4.90;;;;;;;26.50;46.17;100744.53;4991291;28;20033;-75
2022/07/05 06:13:04;;;;;;;27.33;6.40;;;;;;;26.58;45.70;100744.25;4989906;28;20030;-74
2022/07/05 06:15:29;;;;;;;27.27;5.88;;;;;;;26.59;46.67;100726.63;4991311;28;20422;-75
2022/07/05 06:17:55;;;;;;;28.48;5.95;;;;;;;26.70;47.79;100731.38;4991708;28;20031;-75
2022/07/05 06:20:27;;;;;;;22.33;5.90;;;;;;;26.81;47.12;100744.50;4991499;28;20452;-75
2022/07/05 06:22:53;;;;;;;20.53;5.13;;;;;;;26.78;46.06;100739.41;4991403;28;20045;-75
2022/07/05 06:25:19;;;;;;;15.00;4.05;;;;;;;26.87;42.93;100743.56;4991554;28;20265;-75
2022/07/05 06:27:47;;;;;;;13.32;3.97;;;;;;;26.84;42.09;100741.28;4996959;28;20033;-75
2022/07/05 06:30:17;;;;;;;20.92;3.42;;;;;;;26.75;40.90;100731.56;4992364;28;20030;-75
2022/07/05 06:32:44;;;;;;;25.42;3.80;;;;;;;26.85;41.38;100739.34;4991121;28;20035;-76
2022/07/05 06:35:11;;;;;;;18.70;3.33;;;;;;;26.82;41.78;100732.34;4991255;28;20108;-73
2022/07/05 06:37:45;;;;;;;14.38;3.58;;;;;;;26.89;40.61;100741.41;4990894;28;20030;-76
2022/07/05 06:40:13;;;;;;;9.50;4.25;;;;;;;26.86;42.63;100747.41;4995018;28;20038;-76
2022/07/05 06:42:39;;;;;;;10.63;3.22;;;;;;;26.87;41.53;100743.56;4995563;28;20400;-76
2022/07/05 06:45:09;;;;;;;15.25;3.33;;;;;;;26.88;40.53;100750.75;4996691;28;20110;-76
2022/07/05 06:47:35;;;;;;;9.55;2.75;;;;;;;26.95;41.59;100734.97;4994064;28;20399;-76
2022/07/05 06:50:02;;;;;;;3.95;2.70;;;;;;;27.00;40.94;100743.41;4994893;28;20129;-75
2022/07/05 06:52:29;;;;;;;10.80;2.83;;;;;;;27.02;41.45;100746.81;4995057;28;20022;-75
2022/07/05 06:54:54;;;;;;;13.00;2.47;;;;;;;27.09;42.06;100741.22;4995203;28;20034;-76
2022/07/05 06:57:23;;;;;;;13.38;2.28;;;;;;;27.07;41.17;100718.50;4995353;28;20029;-76
2022/07/05 06:59:49;;;;;;;7.15;2.33;;;;;;;27.19;39.61;100735.13;4995231;28;20026;-76
2022/07/05 07:02:15;;;;;;;16.98;4.43;;;;;;;27.28;41.08;100742.03;4994451;28;20026;-76
2022/07/05 07:04:41;;;;;;;12.32;2.15;;;;;;;27.21;36.56;100731.09;4995165;28;20056;-75
2022/07/05 07:09:50;;;;;;;11.25;3.25;;;;;;;27.26;36.32;100741.44;4994947;28;20033;-77
2022/07/05 07:12:16;;;;;;;18.65;3.33;;;;;;;27.40;38.21;100746.56;4994541;28;20030;-77
2022/07/05 07:14:41;;;;;;;14.48;3.60;;;;;;;27.47;40.47;100740.97;4994457;28;20119;-75
2022/07/05 07:17:07;;;;;;;37.30;5.55;;;;;;;27.53;37.62;100743.66;4994100;28;20484;-75
2022/07/05 07:19:32;;;;;;;19.70;4.00;;;;;;;27.57;38.81;100749.56;4993305;28;20041;-75
2022/07/05 07:21:58;;;;;;;8.15;2.75;;;;;;;27.57;39.44;100755.09;4992671;28;20022;-75
2022/07/05 07:24:23;;;;;;;17.55;4.30;;;;;;;27.59;38.17;100752.94;4994044;28;20117;-75
2022/07/05 07:27:04;;;;;;;36.53;5.07;;;;;;;27.65;37.61;100756.69;4993602;28;20017;-75
2022/07/05 07:29:34;;;;;;;17.75;4.15;;;;;;;27.72;36.64;100755.53;4993455;28;20046;-75
2022/07/05 07:32:01;;;;;;;34.17;4.40;;;;;;;27.69;37.04;100757.91;4993803;28;20036;-74
2022/07/05 07:34:27;;;;;;;14.85;3.67;;;;;;;27.77;37.03;100749.28;4975928;28;20035;-75
2022/07/05 07:36:54;;;;;;;22.13;4.43;;;;;;;27.91;37.53;100759.94;4993503;28;20050;-75
2022/07/05 07:39:20;;;;;;;13.70;2.92;;;;;;;27.87;35.97;100769.78;4975977;28;20029;-76
2022/07/05 07:41:45;;;;;;;10.60;2.25;;;;;;;27.85;37.80;100763.63;4977251;28;20408;-75
2022/07/05 07:44:11;;;;;;;6.38;2.80;;;;;;;27.90;37.32;100760.16;4995689;28;20041;-75
2022/07/05 07:46:39;;;;;;;9.98;3.00;;;;;;;27.97;34.25;100761.75;4992514;28;20492;-75
2022/07/05 07:49:05;;;;;;;7.18;3.22;;;;;;;28.03;35.07;100771.88;4992627;28;20034;-75
2022/07/05 07:51:30;;;;;;;12.75;2.95;;;;;;;28.07;35.61;100764.81;4992096;28;20022;-75
2022/07/05 07:53:56;;;;;;;12.95;3.58;;;;;;;28.13;37.42;100770.50;4992270;28;20030;-75
2022/07/05 07:56:21;;;;;;;11.23;2.90;;;;;;;28.17;37.66;100758.72;4992184;28;20085;-74
2022/07/05 07:58:47;;;;;;;12.35;2.47;;;;;;;28.33;36.07;100782.09;4992070;28;20018;-75
2022/07/05 08:01:13;;;;;;;12.77;3.50;;;;;;;28.37;35.34;100783.31;4992765;28;20023;-75
2022/07/05 08:03:39;;;;;;;12.15;3.33;;;;;;;28.38;35.31;100777.50;4993688;28;20026;-75
2022/07/05 08:06:07;;;;;;;21.42;3.33;;;;;;;28.36;34.99;100782.47;4997620;28;20026;-75
2022/07/05 08:08:34;;;;;;;22.77;3.25;;;;;;;28.34;34.26;100779.09;4995763;28;20037;-76
2022/07/05 08:10:59;;;;;;;11.70;2.88;;;;;;;28.35;33.32;100779.91;4993417;28;20022;-74
2022/07/05 08:13:25;;;;;;;9.27;2.67;;;;;;;28.26;35.47;100773.88;4992839;28;20081;-74
2022/07/05 08:15:51;;;;;;;7.45;2.80;;;;;;;28.38;32.95;100785.81;4993417;28;20030;-75
2022/07/05 08:23:45;;;;;;;13.98;2.60;;;;;;;28.63;33.25;100763.47;4993355;28;20100;-76
2022/07/05 08:26:10;;;;;;;25.48;3.55;;;;;;;28.73;33.67;100783.16;4993547;28;20448;-75
2022/07/05 08:28:35;;;;;;;21.02;3.50;;;;;;;28.74;34.06;100784.00;4994394;28;20030;-75
2022/07/05 08:31:01;;;;;;;9.80;3.05;;;;;;;28.79;34.81;100784.94;4996344;28;20050;-75
2022/07/05 08:33:26;;;;;;;13.13;2.90;;;;;;;28.79;34.04;100784.94;4994696;28;20033;-75
2022/07/05 08:35:52;;;;;;;9.30;3.10;;;;;;;28.74;31.37;100773.75;4993361;28;20040;-75
2022/07/05 08:38:17;;;;;;;6.00;2.22;;;;;;;28.87;34.58;100795.66;4993630;28;20077;-75
2022/07/05 08:40:49;;;;;;;16.15;2.95;;;;;;;28.76;37.16;100782.66;4993536;28;20479;-75
2022/07/05 08:43:16;;;;;;;6.18;2.75;;;;;;;28.84;37.29;100789.75;4993379;28;20081;-75
2022/07/05 08:45:44;;;;;;;19.80;2.55;;;;;;;28.92;34.91;100787.50;4992599;28;20121;-75
2022/07/05 08:48:10;;;;;;;19.27;3.47;;;;;;;28.96;35.68;100794.22;4992490;28;20030;-75
2022/07/05 08:50:48;;;;;;;12.10;2.88;;;;;;;29.01;35.59;100793.50;4992403;28;20050;-77
2022/07/05 08:53:15;;;;;;;11.45;2.78;;;;;;;28.95;37.38;100792.53;4992470;28;20117;-76
2022/07/05 08:55:41;;;;;;;7.82;2.85;;;;;;;28.97;37.55;100783.97;4992362;28;20041;-76
2022/07/05 08:58:06;;;;;;;13.45;2.85;;;;;;;29.02;37.03;100793.25;4992578;28;20058;-75
2022/07/05 09:00:32;;;;;;;9.00;2.38;;;;;;;29.05;36.04;100790.00;4992512;28;20401;-75
2022/07/05 09:02:58;;;;;;;13.98;3.00;;;;;;;29.15;37.79;100787.47;4991479;28;20088;-75
2022/07/05 09:05:25;;;;;;;8.70;2.40;;;;;;;29.02;38.04;100790.47;4992148;28;20034;-75
2022/07/05 09:08:01;;;;;;;11.52;2.78;;;;;;;29.13;36.69;100794.34;4992590;28;20069;-77
2022/07/05 09:10:30;;;;;;;17.70;2.70;;;;;;;29.11;37.19;100785.44;4992009;28;20038;-75
2022/07/05 09:12:56;;;;;;;7.93;2.85;;;;;;;29.26;37.47;100793.28;4990785;28;20117;-76
2022/07/05 09:15:23;;;;;;;11.52;2.63;;;;;;;29.18;37.41;100786.97;4992181;28;20037;-75
2022/07/05 09:17:49;;;;;;;7.40;3.42;;;;;;;29.12;35.26;100801.78;4992171;28;20488;-77
2022/07/05 09:20:18;;;;;;;6.85;2.47;;;;;;;29.09;36.89;100793.97;4992180;28;20489;-75
2022/07/05 09:22:43;;;;;;;8.00;2.38;;;;;;;29.15;36.23;100790.22;4992034;28;20496;-75
2022/07/05 09:25:19;;;;;;;9.73;2.97;;;;;;;29.15;37.50;100787.47;4991948;28;20026;-75
2022/07/05 09:28:04;;;;;;;14.43;2.67;;;;;;;29.17;37.83;100790.81;4992008;28;20030;-75
2022/07/05 09:30:38;;;;;;;11.13;2.63;;;;;;;29.30;36.40;100789.75;4991831;28;20030;-75
2022/07/05 09:33:11;;;;;;;9.13;2.50;;;;;;;29.35;35.83;100777.97;4991908;28;20038;-75
2022/07/05 09:35:41;;;;;;;11.70;2.50;;;;;;;29.54;35.31;100779.47;4991837;28;20041;-75
2022/07/05 09:38:20;;;;;;;13.73;2.17;;;;;;;29.57;34.45;100784.53;4991716;28;20026;-75
2022/07/05 09:40:53;;;;;;;9.63;3.30;;;;;;;29.61;34.57;100780.16;4991755;28;20026;-75
2022/07/05 09:43:24;;;;;;;9.65;2.63;;;;;;;29.64;36.83;100785.22;4997659;28;20472;-75
2022/07/05 09:46:00;;;;;;;7.85;2.45;;;;;;;29.65;36.97;100775.81;4994570;28;20117;-75
2022/07/05 09:48:27;;;;;;;24.77;3.95;;;;;;;29.69;37.26;100774.25;4991725;28;20033;-75
2022/07/05 09:51:03;;;;;;;18.08;3.40;;;;;;;29.75;36.02;100770.50;4991425;28;20058;-76
2022/07/05 09:53:48;;;;;;;18.52;3.53;;;;;;;29.80;36.68;100776.13;4991321;28;20516;-75
2022/07/05 09:56:14;;;;;;;16.50;3.35;;;;;;;29.69;35.93;100772.28;4991562;28;20026;-76
2022/07/05 09:58:40;;;;;;;36.33;4.43;;;;;;;29.75;36.76;100769.66;4991413;28;20041;-76
2022/07/05 10:01:29;;;;;;;14.75;3.00;;;;;;;29.72;39.16;100770.13;4991502;28;20026;-75
2022/07/05 10:03:58;;;;;;;10.25;2.17;;;;;;;29.81;36.78;100769.50;4991493;28;20034;-76
2022/07/05 10:06:25;;;;;;;6.15;2.53;;;;;;;29.75;38.67;100761.31;4991473;28;20034;-76
2022/07/05 10:08:52;;;;;;;4.18;2.50;;;;;;;29.78;38.27;100770.00;4991126;28;20053;-76
2022/07/05 10:11:19;;;;;;;13.27;3.33;;;;;;;29.74;38.98;100762.41;4991455;28;20034;-75
2022/07/05 10:13:48;;;;;;;4.70;2.22;;;;;;;29.74;40.89;100746.63;4992977;28;20034;-76
2022/07/05 10:16:18;;;;;;;15.65;2.85;;;;;;;29.70;40.42;100767.59;4995402;28;20087;-75
2022/07/05 10:18:46;;;;;;;6.38;2.30;;;;;;;29.62;40.00;100754.13;4995474;28;20029;-75
2022/07/05 10:21:16;;;;;;;12.95;2.67;;;;;;;29.56;39.36;100763.44;4995363;28;20038;-75
2022/07/05 10:23:56;;;;;;;10.30;2.63;;;;;;;29.61;41.60;100769.06;4995330;28;20045;-75
2022/07/05 10:26:23;;;;;;;8.25;2.53;;;;;;;29.78;41.56;100764.44;4995640;28;20037;-76
2022/07/05 10:28:51;;;;;;;12.73;2.60;;;;;;;29.84;39.70;100768.19;4995327;28;20034;-75
2022/07/05 10:31:18;;;;;;;12.30;2.72;;;;;;;29.74;37.58;100762.41;4995258;28;20409;-75
2022/07/05 10:33:44;;;;;;;17.60;2.78;;;;;;;29.82;39.19;100760.09;4995091;28;20064;-75
2022/07/05 10:36:11;;;;;;;10.38;1.90;;;;;;;29.89;36.79;100760.81;4995181;28;20033;-75
2022/07/05 10:38:40;;;;;;;7.10;1.95;;;;;;;29.95;35.23;100762.59;4995132;28;20038;-75
2022/07/05 10:41:09;;;;;;;13.07;2.17;;;;;;;29.99;37.62;100766.56;4995082;28;20389;-75
2022/07/05 10:43:35;;;;;;;7.45;2.67;;;;;;;29.95;37.90;100759.81;4995321;28;20117;-76
2022/07/05 10:46:02;;;;;;;8.88;2.30;;;;;;;29.89;38.06;100755.25;4995165;28;20110;-75
2022/07/05 10:48:28;;;;;;;8.57;2.50;;;;;;;29.91;36.19;100752.22;4995280;28;20022;-75
2022/07/05 10:50:59;;;;;;;6.68;2.13;;;;;;;29.96;36.14;100744.00;4994822;28;20493;-75
2022/07/05 10:53:34;;;;;;;10.60;2.90;;;;;;;30.01;38.58;100749.66;4995251;28;20407;-76
2022/07/05 10:56:03;;;;;;;13.93;2.30;;;;;;;29.94;39.96;100763.66;4994732;28;20357;-75
2022/07/05 10:58:33;;;;;;;11.63;2.17;;;;;;;30.05;35.39;100756.38;4995027;28;20038;-76
2022/07/05 11:01:17;;;;;;;12.27;2.65;;;;;;;29.92;38.70;100754.75;4995167;28;20030;-77
2022/07/05 11:03:55;;;;;;;6.85;1.92;;;;;;;29.84;39.24;100746.84;4995688;28;20026;-76
2022/07/05 11:06:26;;;;;;;5.95;2.25;;;;;;;29.93;39.21;100739.81;4994998;28;20030;-75
2022/07/05 11:08:57;;;;;;;7.10;2.10;;;;;;;30.17;38.75;100749.69;4995188;28;20465;-76
2022/07/05 11:11:24;;;;;;;16.88;2.65;;;;;;;30.04;39.59;100730.56;4993049;28;20088;-75
2022/07/05 11:13:50;;;;;;;6.93;2.72;;;;;;;30.27;40.87;100751.81;4995039;28;20113;-75
2022/07/05 11:16:33;;;;;;;6.38;2.60;;;;;;;30.40;40.70;100742.31;4995333;28;20026;-76
2022/07/05 11:19:09;;;;;;;6.10;2.13;;;;;;;30.32;38.06;100738.00;4978926;28;20038;-76
2022/07/05 11:21:37;;;;;;;4.38;2.08;;;;;;;30.34;41.28;100740.50;5000498;28;20475;-77
2022/07/05 11:24:21;;;;;;;12.93;2.25;;;;;;;30.46;41.11;100732.97;4977975;28;20408;-76
2022/07/05 11:26:49;;;;;;;9.27;2.42;;;;;;;30.41;41.49;100733.75;4993997;28;20018;-76
2022/07/05 11:29:43;;;;;;;10.73;2.97;;;;;;;30.55;40.39;100732.28;4994429;28;20030;-76
2022/07/05 11:32:15;;;;;;;13.50;3.20;;;;;;;30.61;41.49;100728.50;4994404;28;20108;-76